TAP58 LPPT-LEMD
Flight info
| Callsign | TAP58 |
|---|---|
| Flight time | 1h 0m |
| Altitude | 32000 |
| Route | ORVED DCT OGERO DCT ROLDO DCT RUKER Z409 TLD |
| Aircraft | A343/H-SDE2E3FGHIJ4J5M1RWXY/LB1D1 |
Departure
| Time | 2026-05-04 10:44 |
|---|---|
| Airport | Lisbon Humberto Delgado Airport (LPPT) |
Arrival
| Time | 2026-05-04 11:45 |
|---|---|
| Airport | Adolfo Suárez Madrid–Barajas Airport (LEMD) |
| Time | Latitude | Longitude | Altitude | Speed | Heading |
|---|---|---|---|---|---|
| 2026-05-04 10:08 | 38.77609 | -9.13201 | 341 ft | 0 kts | 78° |
| 2026-05-04 10:22 | 38.77598 | -9.13249 | 336 ft | 1 kts | 50° |
| 2026-05-04 10:22 | 38.77584 | -9.13272 | 335 ft | 4 kts | 73° |
| 2026-05-04 10:22 | 38.77583 | -9.13303 | 352 ft | 4 kts | 115° |
| 2026-05-04 10:23 | 38.77600 | -9.13318 | 353 ft | 4 kts | 174° |
| 2026-05-04 10:23 | 38.77617 | -9.13320 | 341 ft | 0 kts | 180° |
| 2026-05-04 10:25 | 38.77560 | -9.13314 | 348 ft | 0 kts | 168° |
| 2026-05-04 10:29 | 38.77553 | -9.13313 | 348 ft | 2 kts | 168° |
| 2026-05-04 10:29 | 38.77525 | -9.13305 | 350 ft | 5 kts | 166° |
| 2026-05-04 10:29 | 38.77498 | -9.13297 | 351 ft | 8 kts | 167° |
| 2026-05-04 10:32 | 38.77491 | -9.13295 | 349 ft | 0 kts | 167° |
| 2026-05-04 10:33 | 38.77483 | -9.13293 | 347 ft | 2 kts | 167° |
| 2026-05-04 10:33 | 38.77460 | -9.13286 | 345 ft | 5 kts | 167° |
| 2026-05-04 10:33 | 38.77419 | -9.13275 | 350 ft | 7 kts | 168° |
| 2026-05-04 10:33 | 38.77408 | -9.13273 | 352 ft | 0 kts | 171° |
| 2026-05-04 10:34 | 38.77401 | -9.13272 | 349 ft | 2 kts | 171° |
| 2026-05-04 10:34 | 38.77378 | -9.13269 | 350 ft | 0 kts | 177° |
| 2026-05-04 10:34 | 38.77375 | -9.13268 | 350 ft | 0 kts | 173° |
| 2026-05-04 10:35 | 38.77371 | -9.13267 | 350 ft | 3 kts | 171° |
| 2026-05-04 10:35 | 38.77328 | -9.13257 | 347 ft | 12 kts | 170° |
| 2026-05-04 10:35 | 38.77204 | -9.13224 | 352 ft | 22 kts | 167° |
| 2026-05-04 10:35 | 38.77043 | -9.13181 | 342 ft | 25 kts | 168° |
| 2026-05-04 10:36 | 38.76878 | -9.13132 | 351 ft | 19 kts | 166° |
| 2026-05-04 10:36 | 38.76854 | -9.13126 | 350 ft | 5 kts | 170° |
| 2026-05-04 10:36 | 38.76796 | -9.13154 | 353 ft | 13 kts | 225° |
| 2026-05-04 10:36 | 38.76757 | -9.13288 | 354 ft | 18 kts | 260° |
| 2026-05-04 10:37 | 38.76690 | -9.13432 | 358 ft | 22 kts | 216° |
| 2026-05-04 10:37 | 38.76639 | -9.13560 | 355 ft | 19 kts | 258° |
| 2026-05-04 10:37 | 38.76619 | -9.13695 | 356 ft | 0 kts | 258° |
| 2026-05-04 10:39 | 38.76619 | -9.13696 | 349 ft | 0 kts | 258° |
| 2026-05-04 10:39 | 38.76617 | -9.13710 | 358 ft | 7 kts | 259° |
| 2026-05-04 10:40 | 38.76597 | -9.13831 | 354 ft | 21 kts | 259° |
| 2026-05-04 10:40 | 38.76552 | -9.14011 | 360 ft | 24 kts | 236° |
| 2026-05-04 10:40 | 38.76502 | -9.14194 | 355 ft | 15 kts | 283° |
| 2026-05-04 10:40 | 38.76513 | -9.14233 | 349 ft | 0 kts | 290° |
| 2026-05-04 10:42 | 38.76528 | -9.14283 | 344 ft | 13 kts | 292° |
| 2026-05-04 10:42 | 38.76590 | -9.14384 | 334 ft | 15 kts | 339° |
| 2026-05-04 10:42 | 38.76653 | -9.14382 | 336 ft | 0 kts | 16° |
| 2026-05-04 10:42 | 38.76658 | -9.14381 | 337 ft | 1 kts | 16° |
| 2026-05-04 10:43 | 38.76668 | -9.14375 | 337 ft | 2 kts | 22° |
| 2026-05-04 10:44 | 38.79598 | -9.12803 | 1025 ft | 184 kts | 21° |
| 2026-05-04 10:45 | 38.80781 | -9.12071 | 1975 ft | 193 kts | 21° |
| 2026-05-04 10:45 | 38.82043 | -9.11221 | 2759 ft | 220 kts | 30° |
| 2026-05-04 10:45 | 38.83375 | -9.10107 | 3717 ft | 235 kts | 30° |
| 2026-05-04 10:45 | 38.84789 | -9.08981 | 4904 ft | 244 kts | 28° |
| 2026-05-04 10:46 | 38.86273 | -9.07874 | 5894 ft | 256 kts | 27° |
| 2026-05-04 10:46 | 38.87849 | -9.06747 | 7043 ft | 262 kts | 27° |
| 2026-05-04 10:46 | 38.89350 | -9.05366 | 8159 ft | 271 kts | 42° |
| 2026-05-04 10:46 | 38.90449 | -9.03354 | 9250 ft | 282 kts | 59° |
| 2026-05-04 10:47 | 38.91325 | -9.01060 | 10309 ft | 290 kts | 62° |
| 2026-05-04 10:47 | 38.92203 | -8.98640 | 10921 ft | 311 kts | 62° |
| 2026-05-04 10:47 | 38.93156 | -8.96039 | 11491 ft | 329 kts | 62° |
| 2026-05-04 10:47 | 38.94149 | -8.93350 | 12268 ft | 339 kts | 62° |
| 2026-05-04 10:49 | 39.01734 | -8.72901 | 18249 ft | 380 kts | 62° |
| 2026-05-04 10:49 | 39.02881 | -8.69812 | 18987 ft | 386 kts | 62° |
| 2026-05-04 10:50 | 39.04047 | -8.66669 | 19692 ft | 392 kts | 62° |
| 2026-05-04 10:51 | 39.12489 | -8.43767 | 24546 ft | 421 kts | 61° |
| 2026-05-04 10:52 | 39.13729 | -8.40386 | 25044 ft | 426 kts | 61° |
| 2026-05-04 10:52 | 39.14998 | -8.36923 | 25548 ft | 431 kts | 61° |
| 2026-05-04 10:52 | 39.16282 | -8.33414 | 26048 ft | 436 kts | 61° |
| 2026-05-04 10:54 | 39.25630 | -8.07747 | 29299 ft | 467 kts | 62° |
| 2026-05-04 10:54 | 39.26990 | -8.03994 | 29721 ft | 471 kts | 62° |
| 2026-05-04 10:56 | 39.35362 | -7.75541 | 32055 ft | 490 kts | 67° |
| 2026-05-04 10:56 | 39.36505 | -7.71533 | 32077 ft | 473 kts | 67° |
| 2026-05-04 10:56 | 39.37625 | -7.67618 | 32076 ft | 458 kts | 67° |
| 2026-05-04 10:57 | 39.38720 | -7.63817 | 32074 ft | 443 kts | 65° |
| 2026-05-04 10:57 | 39.41098 | -7.56629 | 32077 ft | 433 kts | 62° |
| 2026-05-04 10:58 | 39.43610 | -7.49540 | 32070 ft | 434 kts | 62° |
| 2026-05-04 10:58 | 39.46090 | -7.42415 | 32063 ft | 434 kts | 63° |
| 2026-05-04 10:59 | 39.48511 | -7.35308 | 32064 ft | 435 kts | 63° |
| 2026-05-04 10:59 | 39.50919 | -7.28132 | 32060 ft | 435 kts | 63° |
| 2026-05-04 11:00 | 39.53326 | -7.20954 | 32074 ft | 435 kts | 63° |
| 2026-05-04 11:02 | 39.62971 | -6.92263 | 32044 ft | 432 kts | 63° |
| 2026-05-04 11:05 | 39.80250 | -6.38076 | 32039 ft | 439 kts | 80° |
| 2026-05-04 11:06 | 39.81120 | -6.30202 | 32022 ft | 440 kts | 83° |
| 2026-05-04 11:06 | 39.81806 | -6.22282 | 32033 ft | 441 kts | 84° |
| 2026-05-04 11:10 | 39.86565 | -5.66746 | 32013 ft | 445 kts | 85° |
| 2026-05-04 11:12 | 39.89015 | -5.37037 | 30030 ft | 503 kts | 85° |
| 2026-05-04 11:12 | 39.89384 | -5.32526 | 29302 ft | 500 kts | 86° |
| 2026-05-04 11:12 | 39.89750 | -5.28035 | 28608 ft | 497 kts | 86° |
| 2026-05-04 11:12 | 39.90110 | -5.23585 | 27932 ft | 493 kts | 86° |
| 2026-05-04 11:13 | 39.90465 | -5.19154 | 27266 ft | 490 kts | 86° |
| 2026-05-04 11:13 | 39.90815 | -5.14762 | 26615 ft | 486 kts | 85° |
| 2026-05-04 11:13 | 39.91161 | -5.10404 | 25981 ft | 482 kts | 85° |
| 2026-05-04 11:13 | 39.91502 | -5.06080 | 25375 ft | 478 kts | 85° |
| 2026-05-04 11:14 | 39.91833 | -5.01859 | 24774 ft | 467 kts | 85° |
| 2026-05-04 11:14 | 39.92154 | -4.97767 | 24176 ft | 440 kts | 85° |
| 2026-05-04 11:14 | 39.92457 | -4.93908 | 23576 ft | 421 kts | 86° |
| 2026-05-04 11:16 | 39.94412 | -4.68266 | 19074 ft | 402 kts | 84° |
| 2026-05-04 11:16 | 39.94685 | -4.64636 | 18470 ft | 403 kts | 84° |
| 2026-05-04 11:16 | 39.94956 | -4.61014 | 17818 ft | 402 kts | 84° |
| 2026-05-04 11:17 | 39.95230 | -4.57384 | 17141 ft | 402 kts | 84° |
| 2026-05-04 11:17 | 39.95497 | -4.53765 | 16483 ft | 400 kts | 85° |
| 2026-05-04 11:19 | 40.00347 | -4.32231 | 14670 ft | 347 kts | 36° |
| 2026-05-04 11:19 | 40.02428 | -4.30553 | 14620 ft | 358 kts | 22° |
| 2026-05-04 11:19 | 40.04794 | -4.29528 | 14531 ft | 359 kts | 8° |
| 2026-05-04 11:19 | 40.07257 | -4.29260 | 14292 ft | 353 kts | 354° |
| 2026-05-04 11:20 | 40.09669 | -4.29680 | 14057 ft | 349 kts | 346° |
| 2026-05-04 11:20 | 40.12080 | -4.30063 | 13814 ft | 351 kts | 354° |
| 2026-05-04 11:20 | 40.14488 | -4.29872 | 13554 ft | 353 kts | 4° |
| 2026-05-04 11:20 | 40.16916 | -4.29385 | 13286 ft | 352 kts | 6° |
| 2026-05-04 11:22 | 40.33586 | -4.25674 | 11989 ft | 345 kts | 7° |
| 2026-05-04 11:22 | 40.35956 | -4.25165 | 11970 ft | 344 kts | 4° |
| 2026-05-04 11:23 | 40.38336 | -4.24988 | 11973 ft | 342 kts | 357° |
| 2026-05-04 11:23 | 40.40715 | -4.25033 | 11920 ft | 342 kts | 356° |
| 2026-05-04 11:24 | 40.53801 | -4.25432 | 10968 ft | 258 kts | 355° |
| 2026-05-04 11:25 | 40.55533 | -4.25481 | 10978 ft | 243 kts | 354° |
| 2026-05-04 11:25 | 40.57210 | -4.25534 | 10982 ft | 239 kts | 354° |
| 2026-05-04 11:25 | 40.58870 | -4.25587 | 10984 ft | 238 kts | 355° |
| 2026-05-04 11:26 | 40.62183 | -4.25691 | 10988 ft | 237 kts | 354° |
| 2026-05-04 11:27 | 40.73635 | -4.25003 | 10997 ft | 244 kts | 30° |
| 2026-05-04 11:28 | 40.74900 | -4.23492 | 10997 ft | 246 kts | 50° |
| 2026-05-04 11:28 | 40.75914 | -4.21661 | 10997 ft | 249 kts | 55° |
| 2026-05-04 11:28 | 40.76888 | -4.19778 | 11000 ft | 248 kts | 55° |
| 2026-05-04 11:28 | 40.77888 | -4.17937 | 10998 ft | 247 kts | 54° |
| 2026-05-04 11:29 | 40.78852 | -4.16087 | 11001 ft | 248 kts | 56° |
| 2026-05-04 11:29 | 40.79818 | -4.14202 | 10998 ft | 248 kts | 56° |
| 2026-05-04 11:29 | 40.80786 | -4.12328 | 11004 ft | 248 kts | 55° |
| 2026-05-04 11:29 | 40.81766 | -4.10449 | 10984 ft | 248 kts | 55° |
| 2026-05-04 11:31 | 40.88610 | -3.97417 | 10999 ft | 247 kts | 55° |
| 2026-05-04 11:33 | 40.95320 | -3.84609 | 11002 ft | 272 kts | 55° |
| 2026-05-04 11:33 | 40.96748 | -3.81876 | 10998 ft | 273 kts | 56° |
| 2026-05-04 11:33 | 40.97624 | -3.79645 | 10991 ft | 275 kts | 75° |
| 2026-05-04 11:34 | 40.97803 | -3.77149 | 10963 ft | 273 kts | 94° |
| 2026-05-04 11:34 | 40.97691 | -3.74665 | 10887 ft | 267 kts | 97° |
| 2026-05-04 11:34 | 40.97595 | -3.73057 | 10844 ft | 263 kts | 97° |
| 2026-05-04 11:34 | 40.97459 | -3.70673 | 10753 ft | 256 kts | 91° |
| 2026-05-04 11:35 | 40.97398 | -3.68343 | 10627 ft | 251 kts | 90° |
| 2026-05-04 11:35 | 40.97171 | -3.66072 | 10498 ft | 249 kts | 104° |
| 2026-05-04 11:35 | 40.96686 | -3.63891 | 10496 ft | 245 kts | 108° |
| 2026-05-04 11:35 | 40.95906 | -3.61111 | 10499 ft | 242 kts | 119° |
| 2026-05-04 11:36 | 40.95305 | -3.59871 | 10465 ft | 234 kts | 142° |
| 2026-05-04 11:36 | 40.94019 | -3.58598 | 10247 ft | 231 kts | 153° |
| 2026-05-04 11:36 | 40.92612 | -3.57606 | 10083 ft | 228 kts | 162° |
| 2026-05-04 11:36 | 40.91161 | -3.56878 | 9940 ft | 224 kts | 169° |
| 2026-05-04 11:37 | 40.89659 | -3.56455 | 9690 ft | 217 kts | 178° |
| 2026-05-04 11:37 | 40.88201 | -3.56306 | 9457 ft | 203 kts | 183° |
| 2026-05-04 11:37 | 40.86831 | -3.56274 | 9253 ft | 191 kts | 185° |
| 2026-05-04 11:37 | 40.85535 | -3.56276 | 9054 ft | 185 kts | 185° |
| 2026-05-04 11:38 | 40.84203 | -3.56240 | 8606 ft | 200 kts | 184° |
| 2026-05-04 11:38 | 40.82764 | -3.56194 | 8136 ft | 214 kts | 186° |
| 2026-05-04 11:38 | 40.81228 | -3.56189 | 7646 ft | 227 kts | 185° |
| 2026-05-04 11:38 | 40.79617 | -3.56181 | 7192 ft | 235 kts | 184° |
| 2026-05-04 11:39 | 40.77991 | -3.56177 | 6969 ft | 233 kts | 186° |
| 2026-05-04 11:39 | 40.76388 | -3.56183 | 6643 ft | 229 kts | 185° |
| 2026-05-04 11:40 | 40.68747 | -3.56072 | 5071 ft | 149 kts | 187° |
| 2026-05-04 11:41 | 40.67712 | -3.56066 | 4896 ft | 149 kts | 187° |
| 2026-05-04 11:41 | 40.66674 | -3.56061 | 4713 ft | 150 kts | 184° |
| 2026-05-04 11:41 | 40.65639 | -3.56050 | 4504 ft | 149 kts | 184° |
| 2026-05-04 11:41 | 40.64621 | -3.56043 | 4295 ft | 148 kts | 185° |
| 2026-05-04 11:42 | 40.63601 | -3.56034 | 4102 ft | 144 kts | 185° |
| 2026-05-04 11:42 | 40.62644 | -3.56024 | 3907 ft | 131 kts | 185° |
| 2026-05-04 11:42 | 40.61773 | -3.56016 | 3742 ft | 122 kts | 184° |
| 2026-05-04 11:42 | 40.60920 | -3.56011 | 3576 ft | 123 kts | 183° |
| 2026-05-04 11:43 | 40.60045 | -3.56005 | 3415 ft | 129 kts | 182° |
| 2026-05-04 11:43 | 40.59137 | -3.55998 | 3235 ft | 131 kts | 182° |
| 2026-05-04 11:43 | 40.58227 | -3.55990 | 3044 ft | 131 kts | 182° |
| 2026-05-04 11:43 | 40.57322 | -3.55981 | 2883 ft | 131 kts | 182° |
| 2026-05-04 11:44 | 40.56419 | -3.55974 | 2704 ft | 131 kts | 184° |
| 2026-05-04 11:44 | 40.55518 | -3.55965 | 2530 ft | 130 kts | 185° |
| 2026-05-04 11:44 | 40.54615 | -3.55959 | 2359 ft | 129 kts | 187° |
| 2026-05-04 11:44 | 40.53715 | -3.55952 | 2193 ft | 128 kts | 184° |
| 2026-05-04 11:45 | 40.52826 | -3.55935 | 2006 ft | 128 kts | 181° |
| 2026-05-04 11:45 | 40.52024 | -3.55929 | 1959 ft | 85 kts | 180° |
| 2026-05-04 11:45 | 40.51725 | -3.55926 | 1956 ft | 7 kts | 179° |
| 2026-05-04 11:45 | 40.51618 | -3.55923 | 1954 ft | 31 kts | 179° |
| 2026-05-04 11:46 | 40.51347 | -3.55923 | 1955 ft | 39 kts | 184° |
| 2026-05-04 11:46 | 40.51085 | -3.55951 | 1963 ft | 37 kts | 185° |
| 2026-05-04 11:46 | 40.50875 | -3.56059 | 1966 ft | 30 kts | 209° |
| 2026-05-04 11:46 | 40.50790 | -3.56119 | 1973 ft | 12 kts | 204° |
| 2026-05-04 11:47 | 40.50679 | -3.56151 | 1968 ft | 16 kts | 182° |
| 2026-05-04 11:47 | 40.50670 | -3.56151 | 1968 ft | 0 kts | 180° |
| 2026-05-04 11:48 | 40.50643 | -3.56151 | 1967 ft | 0 kts | 180° |
| 2026-05-04 11:48 | 40.50620 | -3.56151 | 1967 ft | 8 kts | 179° |
| 2026-05-04 11:49 | 40.50591 | -3.56150 | 1967 ft | 0 kts | 179° |
| 2026-05-04 11:49 | 40.50582 | -3.56150 | 1967 ft | 4 kts | 179° |
| 2026-05-04 11:49 | 40.50528 | -3.56149 | 1967 ft | 11 kts | 179° |
| 2026-05-04 11:50 | 40.50421 | -3.56147 | 1967 ft | 20 kts | 179° |
| 2026-05-04 11:50 | 40.50322 | -3.56146 | 1964 ft | 0 kts | 180° |
| 2026-05-04 11:50 | 40.50295 | -3.56146 | 1963 ft | 0 kts | 180° |
| 2026-05-04 11:51 | 40.50287 | -3.56146 | 1963 ft | 4 kts | 180° |
| 2026-05-04 11:51 | 40.50241 | -3.56145 | 1962 ft | 10 kts | 180° |
| 2026-05-04 11:51 | 40.50153 | -3.56148 | 1962 ft | 14 kts | 187° |
| 2026-05-04 11:52 | 40.50113 | -3.56214 | 1964 ft | 9 kts | 241° |
| 2026-05-04 11:52 | 40.50053 | -3.56274 | 1965 ft | 12 kts | 222° |
| 2026-05-04 11:52 | 40.50028 | -3.56371 | 1968 ft | 12 kts | 267° |
| 2026-05-04 11:52 | 40.50026 | -3.56489 | 1973 ft | 14 kts | 269° |
| 2026-05-04 11:53 | 40.50025 | -3.56624 | 1979 ft | 16 kts | 269° |
| 2026-05-04 11:53 | 40.50023 | -3.56770 | 1982 ft | 18 kts | 269° |
| 2026-05-04 11:53 | 40.50020 | -3.56949 | 1983 ft | 21 kts | 256° |
| 2026-05-04 11:53 | 40.49941 | -3.57006 | 1985 ft | 14 kts | 178° |
| 2026-05-04 11:55 | 40.49193 | -3.57115 | 1984 ft | 21 kts | 180° |
| 2026-05-04 11:55 | 40.49141 | -3.57115 | 1986 ft | 6 kts | 180° |
| 2026-05-04 11:56 | 40.49075 | -3.57141 | 1988 ft | 12 kts | 226° |
| 2026-05-04 11:56 | 40.49012 | -3.57220 | 1989 ft | 14 kts | 197° |
| 2026-05-04 11:56 | 40.48900 | -3.57233 | 1991 ft | 17 kts | 197° |
| 2026-05-04 11:56 | 40.48860 | -3.57344 | 1989 ft | 15 kts | 266° |
| 2026-05-04 11:57 | 40.48813 | -3.57456 | 1993 ft | 12 kts | 207° |
| 2026-05-04 11:57 | 40.48765 | -3.57548 | 1996 ft | 14 kts | 261° |
| 2026-05-04 11:57 | 40.48763 | -3.57688 | 1995 ft | 17 kts | 270° |
| 2026-05-04 11:57 | 40.48763 | -3.57857 | 2000 ft | 19 kts | 269° |
| 2026-05-04 11:58 | 40.48762 | -3.58038 | 2006 ft | 20 kts | 270° |
| 2026-05-04 11:58 | 40.48762 | -3.58229 | 2011 ft | 22 kts | 268° |
| 2026-05-04 11:58 | 40.48760 | -3.58430 | 2020 ft | 22 kts | 270° |
| 2026-05-04 11:58 | 40.48760 | -3.58602 | 2026 ft | 17 kts | 270° |
| 2026-05-04 11:59 | 40.48759 | -3.58746 | 2026 ft | 0 kts | 267° |
| 2026-05-04 11:59 | 40.48758 | -3.58749 | 2026 ft | 2 kts | 265° |
| 2026-05-04 12:00 | 40.48743 | -3.58782 | 2026 ft | 5 kts | 218° |
| 2026-05-04 12:00 | 40.48705 | -3.58822 | 2033 ft | 9 kts | 234° |
| 2026-05-04 12:00 | 40.48694 | -3.58887 | 2034 ft | 6 kts | 266° |
| 2026-05-04 12:00 | 40.48692 | -3.58950 | 2033 ft | 4 kts | 269° |
| 2026-05-04 12:01 | 40.48692 | -3.58960 | 2033 ft | 0 kts | 269° |
| 2026-05-04 12:02 | 40.48692 | -3.58957 | 2033 ft | 0 kts | 269° |